Flight Track Log - Related Links

Times and Time Zones

All times are in EDT time to prevent confusion due to time zone crossing. See the SAS4186 flight status page for this flight to view local times or setup timezone preferences in your user account.

Time Position Orientation Groundspeed Altitude Reporting Facility
EDT Latitude Longitude Course Direction KTS MPH feet Rate Location/Type
Wed 12:02:52 PM 59.2149 5.5408 352° North  Level Estimated
Wed 12:03:52 PM 59.3329 5.5065 352° North  Level Estimated
Wed 12:04:52 PM 59.4509 5.4720 352° North  Level Estimated
Wed 12:05:52 PM 59.5688 5.4372 351° North  Level Estimated
Wed 12:06:52 PM 59.6868 5.4022 351° North  Level Estimated
Wed 12:07:52 PM 59.8047 5.3669 351° North  Level Estimated
Wed 12:08:52 PM 59.9227 5.3314 351° North  Level Estimated
Wed 12:09:52 PM 60.0406 5.2957 351° North  Level Estimated
Wed 12:10:52 PM 60.1585 5.2597 351° North  Level Estimated
Wed 12:11:52 PM 60.2764 5.2234 351° North  Level Estimated
Wed 12:12:52 PM 60.3943 5.1868 171° South  Level Estimated
Wed 12:13:52 PM 60.2765 5.2234 351° North  Level Estimated
Wed 12:14:52 PM 60.3943 5.1868 171° South  Level Estimated
Wed 12:15:52 PM 60.2765 5.2234 351° North  Level Estimated
Wed 12:16:52 PM 60.3943 5.1868 171° South  Level Estimated
Wed 12:17:52 PM 60.2765 5.2234 351° North  Level Estimated
Wed 12:18:52 PM 60.3943 5.1868 171° South  Level Estimated
Wed 12:19:52 PM 60.2765 5.2234 351° North  Level Estimated
Wed 12:20:52 PM 60.3943 5.1868 171° South  Level Estimated
Wed 12:21:52 PM 60.2765 5.2234 351° North  Level Estimated
Wed 12:22:52 PM 60.3943 5.1868 171° South  Level Estimated
Wed 12:23:52 PM 60.2765 5.2234 351° North  Level Estimated
Wed 12:24:52 PM 60.3943 5.1868 171° South  Level Estimated
Wed 12:25:52 PM 60.2765 5.2234 351° North  Level Estimated
Wed 12:26:52 PM 60.3943 5.1868 171° South  Level Estimated
Wed 12:27:52 PM 60.2765 5.2234 171° South  Level Estimated

Login

Don't have an account? Register now (free) for customized features, flight alerts, and more!